Ceres, New York
Current Conditions -  °F | °C
As of 4:56 AM on Saturday 25 Oct 2014 (Local Time) from KELZ Reporting Station
Overcast Overcast  
Wind Chill: 42°   Ceiling: 4300
Heat Index: 46°   Visibility: 10mi
Dew Point: 38°   Wind: 7mph
Humidity: 73%   Direction: 250°WSW
Pressure: 29.91"   Gusts: NA
Location:  42°N, 78.27°W
Report Text: KELZ 250856Z AUTO 25006KT 10SM OVC043 08/03 A2991 RMK AO2 SLP131 T00780033 58010
Loading
Personal Weather Stations






























Interactive Weather Map
Tropical Storm Tracking
New forecast layout! Learn more

10-Day Weather Forecast

Advertisements
Track Severe Weather on mobile